Time;durP1;ratioP1;P1;durP2;ratioP2;P2;SDS_P1;SDS_P2;PMS_P1;PMS_P2;Temp;Humidity;BMP_temperature;BMP_pressure;BME280_temperature;BME280_humidity;BME280_pressure;Samples;Min_cycle;Max_cycle;Signal;HPM_P1;HPM_P2
2022/09/26 00:01:57;;;;;;;6.00;2.22;;;;;;;;;;5112283;28;20051;-67
2022/09/26 00:04:25;;;;;;;3.55;2.35;;;;;;;;;;5112202;28;20123;-68
2022/09/26 00:06:52;;;;;;;3.67;2.45;;;;;;;;;;5111715;28;20042;-68
2022/09/26 00:09:19;;;;;;;4.90;2.40;;;;;;;;;;5111799;28;20058;-67
2022/09/26 00:11:45;;;;;;;6.43;2.60;;;;;;;;;;5112313;28;20043;-67
2022/09/26 00:14:13;;;;;;;6.00;2.40;;;;;;;;;;5112215;28;20039;-67
2022/09/26 00:16:39;;;;;;;5.82;2.75;;;;;;;;;;5112006;28;20047;-67
2022/09/26 00:19:06;;;;;;;7.35;2.30;;;;;;;;;;5111928;28;20036;-67
2022/09/26 00:21:33;;;;;;;5.22;2.38;;;;;;;;;;5111425;28;20383;-67
2022/09/26 00:24:00;;;;;;;7.03;2.33;;;;;;;;;;5111947;28;20032;-67
2022/09/26 00:26:26;;;;;;;8.82;2.38;;;;;;;;;;5111577;28;20078;-67
2022/09/26 00:28:53;;;;;;;4.82;2.20;;;;;;;;;;5111408;28;20040;-67
2022/09/26 00:31:21;;;;;;;5.28;2.40;;;;;;;;;;5112010;28;20055;-67
2022/09/26 00:33:47;;;;;;;4.85;2.28;;;;;;;;;;5111902;28;20088;-67
2022/09/26 00:36:14;;;;;;;7.82;2.72;;;;;;;;;;5111037;28;20096;-67
2022/09/26 00:38:40;;;;;;;6.47;2.60;;;;;;;;;;5111629;28;20075;-67
2022/09/26 00:41:07;;;;;;;6.38;2.50;;;;;;;;;;5111680;28;20044;-67
2022/09/26 00:43:37;;;;;;;5.40;2.42;;;;;;;;;;5110869;28;20043;-67
2022/09/26 00:46:18;;;;;;;6.72;2.05;;;;;;;;;;5109993;28;20123;-67
2022/09/26 00:48:46;;;;;;;5.40;2.23;;;;;;;;;;5111120;28;20047;-67
2022/09/26 00:51:12;;;;;;;7.47;2.45;;;;;;;;;;5109344;28;20269;-67
2022/09/26 00:53:42;;;;;;;5.60;2.45;;;;;;;;;;5110989;28;20063;-67
2022/09/26 00:56:10;;;;;;;7.40;2.33;;;;;;;;;;5109861;28;20123;-67
2022/09/26 00:58:42;;;;;;;6.32;2.13;;;;;;;;;;5110331;28;20254;-67
2022/09/26 01:01:08;;;;;;;3.42;1.85;;;;;;;;;;5111123;28;20039;-67
2022/09/26 01:03:35;;;;;;;3.63;1.75;;;;;;;;;;5110751;28;20036;-67
2022/09/26 01:06:01;;;;;;;6.05;2.13;;;;;;;;;;5110651;28;20043;-67
2022/09/26 01:08:36;;;;;;;5.55;2.10;;;;;;;;;;5110978;28;20032;-67
2022/09/26 01:11:03;;;;;;;5.60;2.03;;;;;;;;;;5092468;28;20504;-67
2022/09/26 01:13:30;;;;;;;6.95;2.20;;;;;;;;;;5110585;28;20484;-67
2022/09/26 01:15:56;;;;;;;6.63;1.95;;;;;;;;;;5092210;28;20073;-67
2022/09/26 01:18:22;;;;;;;8.57;2.15;;;;;;;;;;5092093;28;20051;-67
2022/09/26 01:20:48;;;;;;;7.85;2.30;;;;;;;;;;5109964;28;20040;-67
2022/09/26 01:23:14;;;;;;;4.93;1.60;;;;;;;;;;5110708;28;20043;-67
2022/09/26 01:25:43;;;;;;;6.38;2.20;;;;;;;;;;5110498;28;20047;-67
2022/09/26 01:28:25;;;;;;;6.72;2.13;;;;;;;;;;5109915;28;20035;-67
2022/09/26 01:31:03;;;;;;;6.35;2.08;;;;;;;;;;5110572;28;20040;-67
2022/09/26 01:33:49;;;;;;;4.43;1.80;;;;;;;;;;5110263;28;20065;-67
2022/09/26 01:36:27;;;;;;;4.38;1.70;;;;;;;;;;5110486;28;20526;-67
2022/09/26 01:38:59;;;;;;;8.27;1.90;;;;;;;;;;5108707;28;20471;-67
2022/09/26 01:41:36;;;;;;;6.25;2.25;;;;;;;;;;5110079;28;20038;-67
2022/09/26 01:44:08;;;;;;;6.53;2.25;;;;;;;;;;5109153;28;20477;-67
2022/09/26 01:46:38;;;;;;;8.05;2.65;;;;;;;;;;5110428;28;20035;-67
2022/09/26 01:49:18;;;;;;;6.32;2.13;;;;;;;;;;5109961;28;20061;-67
2022/09/26 01:51:49;;;;;;;8.85;2.50;;;;;;;;;;5110228;28;20044;-67
2022/09/26 01:54:22;;;;;;;6.10;2.20;;;;;;;;;;5109176;28;20043;-67
2022/09/26 01:56:49;;;;;;;9.02;2.33;;;;;;;;;;5109806;28;20035;-67
2022/09/26 01:59:23;;;;;;;8.57;2.78;;;;;;;;;;5109492;28;20043;-67
2022/09/26 02:01:51;;;;;;;8.50;2.50;;;;;;;;;;5110113;28;20547;-67
2022/09/26 02:04:19;;;;;;;7.07;2.47;;;;;;;;;;5109607;28;20492;-67
2022/09/26 02:06:54;;;;;;;5.25;2.65;;;;;;;;;;5110009;28;20031;-67
2022/09/26 02:09:29;;;;;;;7.07;2.67;;;;;;;;;;5090973;28;20048;-67
2022/09/26 02:11:59;;;;;;;6.80;2.97;;;;;;;;;;5109603;28;20168;-67
2022/09/26 02:14:28;;;;;;;7.97;3.08;;;;;;;;;;5110085;28;20393;-67
2022/09/26 02:16:56;;;;;;;6.43;2.90;;;;;;;;;;5110222;28;20111;-67
2022/09/26 02:19:25;;;;;;;7.05;2.88;;;;;;;;;;5109175;28;20063;-67
2022/09/26 02:21:51;;;;;;;6.88;3.10;;;;;;;;;;5109856;28;20071;-67
2022/09/26 02:24:17;;;;;;;7.82;3.28;;;;;;;;;;5091532;28;20443;-67
2022/09/26 02:26:44;;;;;;;6.05;3.00;;;;;;;;;;5109321;28;20038;-67
2022/09/26 02:29:12;;;;;;;7.05;2.85;;;;;;;;;;5107938;28;20044;-67
2022/09/26 02:31:48;;;;;;;8.43;3.15;;;;;;;;;;5109762;28;20100;-67
2022/09/26 02:34:14;;;;;;;7.28;3.22;;;;;;;;;;5109328;28;20050;-67
2022/09/26 02:36:40;;;;;;;6.28;2.97;;;;;;;;;;5109587;28;20035;-67
2022/09/26 02:39:06;;;;;;;8.02;3.13;;;;;;;;;;5109588;28;20065;-67
2022/09/26 02:41:44;;;;;;;6.72;3.30;;;;;;;;;;5108997;28;20040;-67
2022/09/26 02:44:17;;;;;;;8.88;3.70;;;;;;;;;;5109316;28;20035;-67
2022/09/26 02:46:52;;;;;;;10.93;3.40;;;;;;;;;;5109387;28;20039;-67
2022/09/26 02:49:24;;;;;;;7.03;3.53;;;;;;;;;;5109091;28;20042;-67
2022/09/26 02:52:06;;;;;;;8.52;3.97;;;;;;;;;;5109561;28;20044;-67
2022/09/26 02:54:48;;;;;;;10.32;4.28;;;;;;;;;;5109565;28;20043;-67
2022/09/26 02:57:17;;;;;;;8.10;3.80;;;;;;;;;;5108880;28;20409;-67
2022/09/26 02:59:49;;;;;;;7.88;3.78;;;;;;;;;;5109481;28;20077;-67
2022/09/26 03:02:29;;;;;;;9.33;3.87;;;;;;;;;;5109408;28;20047;-67
2022/09/26 03:05:02;;;;;;;9.20;4.20;;;;;;;;;;5097528;28;20161;-67
2022/09/26 03:07:42;;;;;;;8.93;4.20;;;;;;;;;;5109363;28;20032;-67
2022/09/26 03:10:09;;;;;;;12.80;4.30;;;;;;;;;;5108791;28;20048;-67
2022/09/26 03:12:37;;;;;;;8.27;4.40;;;;;;;;;;5093894;28;20035;-67
2022/09/26 03:15:04;;;;;;;8.75;4.57;;;;;;;;;;5113184;28;20413;-67
2022/09/26 03:17:33;;;;;;;11.25;4.43;;;;;;;;;;5112835;28;20036;-67
2022/09/26 03:20:03;;;;;;;8.85;4.68;;;;;;;;;;5113049;28;20494;-67
2022/09/26 03:22:29;;;;;;;7.82;4.65;;;;;;;;;;5094925;28;20042;-67
2022/09/26 03:24:58;;;;;;;10.57;5.70;;;;;;;;;;5112924;28;20035;-67
2022/09/26 03:27:24;;;;;;;8.18;5.07;;;;;;;;;;5111879;28;20040;-67
2022/09/26 03:29:50;;;;;;;10.77;5.25;;;;;;;;;;5112839;28;20316;-67
2022/09/26 03:32:16;;;;;;;11.63;5.00;;;;;;;;;;5112523;28;20042;-67
2022/09/26 03:34:42;;;;;;;12.48;5.10;;;;;;;;;;5112843;28;20478;-67
2022/09/26 03:37:08;;;;;;;10.50;5.25;;;;;;;;;;5112922;28;20043;-67
2022/09/26 03:39:34;;;;;;;9.40;5.28;;;;;;;;;;5112580;28;20043;-67
2022/09/26 03:42:01;;;;;;;7.20;4.97;;;;;;;;;;5112723;28;20120;-67
2022/09/26 03:44:27;;;;;;;8.98;5.22;;;;;;;;;;5112699;28;20044;-67
2022/09/26 03:46:53;;;;;;;13.57;5.38;;;;;;;;;;5112523;28;20036;-67
2022/09/26 03:49:19;;;;;;;13.68;5.45;;;;;;;;;;5111809;28;20438;-67
2022/09/26 03:51:45;;;;;;;10.88;5.45;;;;;;;;;;5112586;28;20046;-67
2022/09/26 03:54:12;;;;;;;10.75;5.22;;;;;;;;;;5112480;28;20477;-67
2022/09/26 03:56:38;;;;;;;7.88;5.20;;;;;;;;;;5110544;28;20044;-67
2022/09/26 03:59:04;;;;;;;10.07;5.20;;;;;;;;;;5110693;28;20059;-67
2022/09/26 04:01:30;;;;;;;12.27;5.88;;;;;;;;;;5110642;28;20401;-67
2022/09/26 04:03:59;;;;;;;9.27;5.50;;;;;;;;;;5108726;28;20078;-67
2022/09/26 04:06:25;;;;;;;8.13;5.18;;;;;;;;;;5093852;28;20482;-67
2022/09/26 04:08:52;;;;;;;11.68;6.57;;;;;;;;;;5111887;28;20788;-67
2022/09/26 04:11:19;;;;;;;9.82;5.93;;;;;;;;;;5111812;28;20081;-67
2022/09/26 04:13:47;;;;;;;11.55;6.90;;;;;;;;;;5112220;28;20050;-67
2022/09/26 04:16:13;;;;;;;11.50;6.45;;;;;;;;;;5112167;28;20066;-67
2022/09/26 04:18:39;;;;;;;10.73;6.40;;;;;;;;;;5111675;28;20401;-67
2022/09/26 04:21:07;;;;;;;9.30;6.05;;;;;;;;;;5111938;28;20370;-66
2022/09/26 04:23:34;;;;;;;13.85;6.65;;;;;;;;;;5093218;28;20086;-66
2022/09/26 04:26:04;;;;;;;9.85;6.93;;;;;;;;;;5098925;28;20043;-67
2022/09/26 04:28:30;;;;;;;11.73;6.68;;;;;;;;;;5111618;28;20040;-67
2022/09/26 04:30:59;;;;;;;12.57;7.07;;;;;;;;;;5111917;28;20085;-67
2022/09/26 04:33:25;;;;;;;15.18;7.05;;;;;;;;;;5111390;28;20390;-67
2022/09/26 04:35:51;;;;;;;15.68;7.32;;;;;;;;;;5112690;28;20039;-67
2022/09/26 04:38:17;;;;;;;10.88;6.55;;;;;;;;;;5112161;28;20043;-66
2022/09/26 04:40:44;;;;;;;11.20;7.15;;;;;;;;;;5110880;28;20097;-66
2022/09/26 04:43:10;;;;;;;12.15;6.78;;;;;;;;;;5110925;28;20459;-67
2022/09/26 04:45:39;;;;;;;13.43;6.97;;;;;;;;;;5112693;28;20031;-67
2022/09/26 04:48:06;;;;;;;12.35;7.00;;;;;;;;;;5112271;28;20122;-66
2022/09/26 04:50:32;;;;;;;11.30;7.43;;;;;;;;;;5112433;28;20054;-67
2022/09/26 04:53:00;;;;;;;10.77;7.65;;;;;;;;;;5112794;28;20042;-67
2022/09/26 04:55:26;;;;;;;13.80;7.30;;;;;;;;;;5112196;28;20058;-66
2022/09/26 04:57:52;;;;;;;12.35;6.95;;;;;;;;;;5112540;28;20043;-66
2022/09/26 05:00:18;;;;;;;11.15;8.10;;;;;;;;;;5112118;28;20040;-67
2022/09/26 05:02:46;;;;;;;12.20;7.80;;;;;;;;;;5112168;28;20077;-66
2022/09/26 05:05:12;;;;;;;9.30;7.10;;;;;;;;;;5112260;28;20507;-66
2022/09/26 05:07:44;;;;;;;12.95;8.02;;;;;;;;;;5112269;28;20527;-66
2022/09/26 05:10:10;;;;;;;9.60;7.70;;;;;;;;;;5111497;28;20052;-66
2022/09/26 05:12:39;;;;;;;11.65;7.28;;;;;;;;;;5093579;28;20047;-67
2022/09/26 05:15:09;;;;;;;12.40;8.02;;;;;;;;;;5110513;27;20043;-66
2022/09/26 05:17:38;;;;;;;11.05;7.47;;;;;;;;;;5115059;27;20100;-66
2022/09/26 05:20:07;;;;;;;12.68;7.60;;;;;;;;;;5111924;28;20122;-66
2022/09/26 05:22:33;;;;;;;11.55;8.13;;;;;;;;;;5109991;28;20054;-66
2022/09/26 05:27:44;;;;;;;17.65;8.20;;;;;;;;;;5109658;28;20036;-66
2022/09/26 05:30:11;;;;;;;13.15;8.15;;;;;;;;;;5109987;28;20040;-66
2022/09/26 05:32:38;;;;;;;14.45;9.73;;;;;;;;;;5091362;28;20242;-66
2022/09/26 05:35:04;;;;;;;11.20;7.85;;;;;;;;;;5108877;28;20092;-66
2022/09/26 05:37:30;;;;;;;15.85;9.30;;;;;;;;;;5110179;28;20456;-67
2022/09/26 05:42:41;;;;;;;15.15;8.27;;;;;;;;;;5110239;28;20047;-66
2022/09/26 05:45:08;;;;;;;13.35;7.68;;;;;;;;;;5109233;28;20553;-66
2022/09/26 05:47:35;;;;;;;13.38;7.95;;;;;;;;;;5109422;28;20044;-66
2022/09/26 05:50:03;;;;;;;12.07;8.20;;;;;;;;;;5109871;28;20154;-66
2022/09/26 05:52:29;;;;;;;14.98;8.70;;;;;;;;;;5109679;28;20058;-67
2022/09/26 05:54:55;;;;;;;15.13;8.40;;;;;;;;;;5109683;28;20036;-67
2022/09/26 05:57:21;;;;;;;16.13;9.05;;;;;;;;;;5109111;28;20085;-66
2022/09/26 05:59:47;;;;;;;13.52;8.45;;;;;;;;;;5088615;28;20470;-67
2022/09/26 06:02:13;;;;;;;13.07;7.97;;;;;;;;;;5108133;28;20039;-66
2022/09/26 06:04:39;;;;;;;11.27;7.80;;;;;;;;;;5098821;28;20087;-67
2022/09/26 06:07:05;;;;;;;14.05;8.45;;;;;;;;;;5105003;28;20071;-66
2022/09/26 06:09:31;;;;;;;9.95;7.63;;;;;;;;;;5091426;28;20048;-67
2022/09/26 06:11:57;;;;;;;14.70;7.97;;;;;;;;;;5089619;28;20415;-67
2022/09/26 06:14:25;;;;;;;12.05;7.72;;;;;;;;;;5093572;28;20067;-67
2022/09/26 06:16:51;;;;;;;12.55;7.78;;;;;;;;;;5095758;28;20040;-67
2022/09/26 06:19:17;;;;;;;12.93;7.60;;;;;;;;;;5109547;28;20758;-67
2022/09/26 06:21:43;;;;;;;13.90;7.63;;;;;;;;;;5092230;28;20055;-67
2022/09/26 06:24:10;;;;;;;10.07;8.38;;;;;;;;;;5090578;28;20036;-66
2022/09/26 06:26:36;;;;;;;15.48;8.15;;;;;;;;;;5100053;28;20033;-67
2022/09/26 06:29:02;;;;;;;11.50;7.13;;;;;;;;;;5091980;28;20133;-67
2022/09/26 06:31:29;;;;;;;12.90;7.15;;;;;;;;;;5109137;28;20107;-67
2022/09/26 06:33:55;;;;;;;15.40;7.18;;;;;;;;;;5110356;28;20066;-67
2022/09/26 06:36:23;;;;;;;10.18;6.40;;;;;;;;;;5091017;28;20071;-67
2022/09/26 06:38:49;;;;;;;12.90;7.28;;;;;;;;;;5103758;28;20999;-67
2022/09/26 06:41:15;;;;;;;10.95;6.55;;;;;;;;;;5110065;28;20040;-67
2022/09/26 06:43:43;;;;;;;11.77;6.38;;;;;;;;;;5108476;28;20055;-68
2022/09/26 06:46:10;;;;;;;11.82;6.65;;;;;;;;;;5093363;28;20047;-68
2022/09/26 06:48:36;;;;;;;9.70;6.20;;;;;;;;;;5112994;28;20034;-67
2022/09/26 06:51:02;;;;;;;10.25;6.57;;;;;;;;;;5112497;28;20050;-67
2022/09/26 06:53:28;;;;;;;8.30;5.55;;;;;;;;;;5113858;28;20118;-68
2022/09/26 06:55:54;;;;;;;8.60;6.10;;;;;;;;;;5113144;28;20040;-67
2022/09/26 06:58:20;;;;;;;11.20;6.60;;;;;;;;;;5097782;28;20047;-68
2022/09/26 07:00:47;;;;;;;10.18;6.10;;;;;;;;;;5112121;28;20039;-68
2022/09/26 07:03:14;;;;;;;12.80;6.05;;;;;;;;;;5112392;27;20123;-67
2022/09/26 07:05:41;;;;;;;9.45;5.85;;;;;;;;;;5096715;28;20047;-67
2022/09/26 07:08:07;;;;;;;9.85;5.65;;;;;;;;;;5111991;28;20455;-67
2022/09/26 07:10:33;;;;;;;9.05;4.75;;;;;;;;;;5128982;27;20505;-67
2022/09/26 07:13:04;;;;;;;12.43;5.30;;;;;;;;;;5120084;27;20063;-67
2022/09/26 07:15:32;;;;;;;9.38;5.18;;;;;;;;;;5117186;27;20120;-67
2022/09/26 07:18:01;;;;;;;7.72;4.60;;;;;;;;;;5118598;27;20046;-67
2022/09/26 07:20:28;;;;;;;7.93;4.82;;;;;;;;;;5094248;28;20426;-66
2022/09/26 07:22:54;;;;;;;9.75;5.72;;;;;;;;;;5112486;28;20040;-66
2022/09/26 07:25:20;;;;;;;13.52;5.75;;;;;;;;;;5113085;28;20521;-67
2022/09/26 07:27:49;;;;;;;9.73;5.20;;;;;;;;;;5112693;28;20031;-66
2022/09/26 07:30:15;;;;;;;7.72;4.82;;;;;;;;;;5104426;28;20461;-66
2022/09/26 07:32:45;;;;;;;10.60;5.13;;;;;;;;;;5111620;28;20042;-65
2022/09/26 07:35:11;;;;;;;7.07;4.68;;;;;;;;;;5112474;27;20672;-64
2022/09/26 07:37:37;;;;;;;7.70;4.82;;;;;;;;;;5113698;27;20548;-65
2022/09/26 07:40:04;;;;;;;10.10;4.80;;;;;;;;;;5109101;27;20047;-65
2022/09/26 07:42:30;;;;;;;8.05;4.50;;;;;;;;;;5104736;27;20575;-65
2022/09/26 07:44:56;;;;;;;9.32;5.00;;;;;;;;;;5115215;27;20114;-65
2022/09/26 07:50:11;;;;;;;10.88;4.93;;;;;;;;;;5107234;28;20640;-65
2022/09/26 07:52:37;;;;;;;9.63;4.95;;;;;;;;;;5084838;28;20108;-65
2022/09/26 07:55:04;;;;;;;8.13;4.38;;;;;;;;;;5108247;28;20470;-65
2022/09/26 07:57:33;;;;;;;11.27;4.97;;;;;;;;;;5105933;27;20089;-65
2022/09/26 07:59:59;;;;;;;9.68;4.82;;;;;;;;;;5109847;28;20123;-64
2022/09/26 08:02:34;;;;;;;7.18;4.28;;;;;;;;;;5113673;27;20043;-66
2022/09/26 08:05:04;;;;;;;12.43;4.70;;;;;;;;;;5118794;27;20062;-65
2022/09/26 08:07:31;;;;;;;11.65;4.60;;;;;;;;;;5110501;27;20042;-67
2022/09/26 08:09:57;;;;;;;7.80;4.68;;;;;;;;;;5110143;28;20083;-67
2022/09/26 08:12:24;;;;;;;6.93;4.47;;;;;;;;;;5096118;28;20093;-63
2022/09/26 08:14:51;;;;;;;12.48;4.93;;;;;;;;;;5092994;28;20462;-64
2022/09/26 08:17:20;;;;;;;6.25;4.25;;;;;;;;;;5091786;28;20063;-65
2022/09/26 08:19:47;;;;;;;8.02;4.68;;;;;;;;;;5093304;28;20059;-66
2022/09/26 08:22:13;;;;;;;7.13;4.45;;;;;;;;;;5088752;28;20048;-65
2022/09/26 08:24:39;;;;;;;12.15;4.82;;;;;;;;;;5086681;28;20036;-65
2022/09/26 08:27:06;;;;;;;7.38;4.50;;;;;;;;;;5101019;28;20031;-65
2022/09/26 08:29:33;;;;;;;9.23;4.63;;;;;;;;;;5089650;28;20038;-64
2022/09/26 08:32:03;;;;;;;11.07;5.53;;;;;;;;;;5091662;28;20443;-66
2022/09/26 08:34:30;;;;;;;7.53;4.72;;;;;;;;;;5072533;28;20634;-65
2022/09/26 08:36:57;;;;;;;10.82;4.32;;;;;;;;;;5088128;28;20067;-65
2022/09/26 08:39:23;;;;;;;6.88;4.22;;;;;;;;;;5100734;28;20660;-64
2022/09/26 08:41:52;;;;;;;7.20;4.03;;;;;;;;;;5088600;28;20159;-66
2022/09/26 08:44:21;;;;;;;7.60;4.68;;;;;;;;;;5083754;28;20032;-67
2022/09/26 08:47:00;;;;;;;7.25;4.72;;;;;;;;;;5088237;28;20044;-65
2022/09/26 08:49:49;;;;;;;8.32;4.43;;;;;;;;;;5084676;28;20048;-65
2022/09/26 08:52:33;;;;;;;6.72;4.47;;;;;;;;;;5080672;28;20058;-64
2022/09/26 08:55:02;;;;;;;7.53;4.22;;;;;;;;;;5088549;28;20038;-66
2022/09/26 08:57:37;;;;;;;5.47;3.78;;;;;;;;;;5075625;28;20041;-66
2022/09/26 09:00:08;;;;;;;11.75;3.53;;;;;;;;;;5085265;28;20101;-65
2022/09/26 09:02:36;;;;;;;6.60;4.15;;;;;;;;;;5090851;28;20540;-65
2022/09/26 09:05:02;;;;;;;8.15;4.13;;;;;;;;;;5088266;28;20359;-64
2022/09/26 09:07:29;;;;;;;8.23;4.00;;;;;;;;;;5085315;28;20040;-66
2022/09/26 09:10:00;;;;;;;8.90;3.85;;;;;;;;;;5101498;28;20485;-66
2022/09/26 09:12:35;;;;;;;7.53;3.90;;;;;;;;;;5104433;27;20122;-65
2022/09/26 09:15:19;;;;;;;9.95;3.75;;;;;;;;;;5112882;27;20098;-64
2022/09/26 09:17:51;;;;;;;7.43;3.80;;;;;;;;;;5107853;27;20180;-66
2022/09/26 09:20:32;;;;;;;9.02;3.60;;;;;;;;;;5098669;28;20046;-66
2022/09/26 09:22:57;;;;;;;9.38;3.92;;;;;;;;;;5098812;28;20126;-65
2022/09/26 09:25:31;;;;;;;8.30;3.90;;;;;;;;;;5103467;27;20421;-67
2022/09/26 09:28:06;;;;;;;8.05;4.00;;;;;;;;;;5102703;27;20154;-65
2022/09/26 09:30:43;;;;;;;8.25;4.13;;;;;;;;;;5104957;27;20053;-66
2022/09/26 09:33:12;;;;;;;9.13;4.63;;;;;;;;;;5106368;27;20126;-67
2022/09/26 09:35:43;;;;;;;8.20;4.25;;;;;;;;;;5110427;27;20163;-69
2022/09/26 09:38:13;;;;;;;10.97;5.00;;;;;;;;;;5098986;27;20048;-70
2022/09/26 09:40:42;;;;;;;8.80;4.13;;;;;;;;;;5095486;28;20040;-67
2022/09/26 09:43:27;;;;;;;12.35;4.57;;;;;;;;;;5118654;27;20076;-69
2022/09/26 09:45:54;;;;;;;8.52;4.05;;;;;;;;;;5112756;27;20668;-69
2022/09/26 09:48:20;;;;;;;13.02;4.82;;;;;;;;;;5094525;28;20039;-66
2022/09/26 09:51:19;;;;;;;10.25;4.60;;;;;;;;;;5110163;27;20427;-66
2022/09/26 09:53:52;;;;;;;7.53;4.43;;;;;;;;;;5055877;27;20051;-69
2022/09/26 09:56:38;;;;;;;12.82;4.80;;;;;;;;;;5098057;27;20059;-68
2022/09/26 09:59:23;;;;;;;11.07;5.35;;;;;;;;;;5108153;28;20398;-67
2022/09/26 10:01:53;;;;;;;10.27;5.05;;;;;;;;;;5105320;27;20046;-65
2022/09/26 10:04:35;;;;;;;9.63;5.25;;;;;;;;;;5084280;28;20077;-68
2022/09/26 10:07:02;;;;;;;13.25;4.28;;;;;;;;;;5114257;27;20092;-67
2022/09/26 10:09:31;;;;;;;8.82;4.63;;;;;;;;;;5099303;27;20159;-66
2022/09/26 10:11:58;;;;;;;9.63;4.85;;;;;;;;;;5067557;28;20123;-68
2022/09/26 10:14:29;;;;;;;8.27;4.30;;;;;;;;;;5070620;28;20498;-67
2022/09/26 10:17:11;;;;;;;10.55;4.80;;;;;;;;;;5053600;28;20111;-67
2022/09/26 10:19:38;;;;;;;9.23;4.88;;;;;;;;;;5086159;28;20051;-66
2022/09/26 10:22:08;;;;;;;10.27;4.68;;;;;;;;;;5087323;28;20044;-68
2022/09/26 10:24:39;;;;;;;9.02;4.85;;;;;;;;;;5103190;28;20050;-68
2022/09/26 10:27:26;;;;;;;10.52;4.70;;;;;;;;;;5071461;28;20386;-68
2022/09/26 10:29:57;;;;;;;9.85;4.32;;;;;;;;;;5080629;28;20051;-65
2022/09/26 10:32:24;;;;;;;10.15;4.93;;;;;;;;;;5076000;28;20056;-66
2022/09/26 10:35:06;;;;;;;10.38;4.80;;;;;;;;;;5088465;28;20044;-64
2022/09/26 10:37:35;;;;;;;8.38;4.45;;;;;;;;;;5086999;28;20048;-66
2022/09/26 10:42:46;;;;;;;7.50;4.53;;;;;;;;;;5089763;28;20044;-68
2022/09/26 10:45:19;;;;;;;9.73;4.38;;;;;;;;;;5084704;28;20158;-67
2022/09/26 10:47:45;;;;;;;;;;;;;;;;;;5074696;28;20399;-67
2022/09/26 10:50:11;;;;;;;9.32;4.22;;;;;;;;;;5080275;28;19916;-67
2022/09/26 10:52:44;;;;;;;10.32;4.30;;;;;;;;;;5060215;28;20036;-67
2022/09/26 10:55:15;;;;;;;9.52;4.70;;;;;;;;;;5081642;28;20047;-69
2022/09/26 10:57:44;;;;;;;9.60;5.18;;;;;;;;;;5062910;28;20126;-66
2022/09/26 11:00:20;;;;;;;9.13;5.00;;;;;;;;;;5088324;28;20154;-65
2022/09/26 11:02:50;;;;;;;9.35;5.32;;;;;;;;;;5091144;28;20032;-66
2022/09/26 11:08:04;;;;;;;8.75;4.85;;;;;;;;;;5088249;28;20040;-65
2022/09/26 11:10:31;;;;;;;6.22;4.55;;;;;;;;;;5104342;28;20138;-65
2022/09/26 11:13:17;;;;;;;7.15;4.97;;;;;;;;;;5090220;28;20048;-65
2022/09/26 11:16:02;;;;;;;8.13;4.85;;;;;;;;;;5092005;28;20051;-65
2022/09/26 11:18:42;;;;;;;8.05;4.93;;;;;;;;;;5108827;28;20042;-65
2022/09/26 11:21:20;;;;;;;9.48;5.40;;;;;;;;;;5109239;28;20046;-65
2022/09/26 11:24:01;;;;;;;6.65;4.93;;;;;;;;;;5116621;28;20110;-65
2022/09/26 11:26:33;;;;;;;8.45;5.60;;;;;;;;;;5107446;28;20035;-65
2022/09/26 11:29:03;;;;;;;9.27;5.40;;;;;;;;;;5109855;28;20115;-65
2022/09/26 11:31:33;;;;;;;8.98;5.25;;;;;;;;;;5090944;28;20110;-66
2022/09/26 11:34:02;;;;;;;10.05;6.10;;;;;;;;;;5111943;28;20394;-66
2022/09/26 11:36:40;;;;;;;6.35;5.10;;;;;;;;;;5113011;28;20043;-66
2022/09/26 11:39:16;;;;;;;8.20;5.50;;;;;;;;;;5111376;28;20038;-66
2022/09/26 11:41:42;;;;;;;9.98;5.53;;;;;;;;;;5106110;27;20044;-63
2022/09/26 11:44:08;;;;;;;8.20;5.95;;;;;;;;;;5121733;27;20039;-62
2022/09/26 11:46:45;;;;;;;9.45;5.72;;;;;;;;;;5115016;27;20435;-61
2022/09/26 11:49:12;;;;;;;9.00;5.28;;;;;;;;;;5111045;27;20104;-60
2022/09/26 11:51:57;;;;;;;10.30;5.88;;;;;;;;;;5111340;27;20074;-62
2022/09/26 11:54:32;;;;;;;10.18;5.75;;;;;;;;;;5113590;27;20577;-58
2022/09/26 11:56:58;;;;;;;9.93;5.55;;;;;;;;;;5094845;28;20101;-60
2022/09/26 11:59:36;;;;;;;9.25;5.25;;;;;;;;;;5106682;28;20129;-61
2022/09/26 12:02:14;;;;;;;13.65;5.57;;;;;;;;;;5101941;27;20067;-61
2022/09/26 12:04:50;;;;;;;9.82;5.78;;;;;;;;;;5092988;28;20044;-61
2022/09/26 12:07:21;;;;;;;7.82;5.53;;;;;;;;;;5100019;28;20035;-61
2022/09/26 12:09:56;;;;;;;8.52;6.10;;;;;;;;;;5108342;27;20410;-62
2022/09/26 12:12:30;;;;;;;6.75;5.28;;;;;;;;;;5104079;28;20040;-61
2022/09/26 12:15:02;;;;;;;6.65;5.13;;;;;;;;;;5111035;27;20103;-61
2022/09/26 12:17:40;;;;;;;7.82;5.65;;;;;;;;;;5096114;28;20042;-62
2022/09/26 12:20:25;;;;;;;7.65;5.35;;;;;;;;;;5118487;27;20046;-63
2022/09/26 12:23:02;;;;;;;9.00;4.95;;;;;;;;;;5113296;27;20078;-62
2022/09/26 12:25:48;;;;;;;8.57;5.05;;;;;;;;;;5117953;27;20032;-61
2022/09/26 12:28:33;;;;;;;6.13;5.00;;;;;;;;;;5111698;27;20047;-61
2022/09/26 12:31:25;;;;;;;5.63;4.63;;;;;;;;;;5115306;27;20036;-61
2022/09/26 12:33:51;;;;;;;;;;;;;;;;;;5083997;27;20480;-61
2022/09/26 12:36:30;;;;;;;8.73;3.60;;;;;;;;;;5111704;27;19963;-60
2022/09/26 12:39:14;;;;;;;6.30;4.60;;;;;;;;;;5111625;27;20040;-61
2022/09/26 12:41:50;;;;;;;7.72;5.03;;;;;;;;;;5119910;27;20074;-60
2022/09/26 12:44:21;;;;;;;6.65;4.63;;;;;;;;;;5105626;27;20039;-62
2022/09/26 12:46:47;;;;;;;7.38;4.53;;;;;;;;;;5102509;27;20038;-62
2022/09/26 12:49:16;;;;;;;6.47;4.15;;;;;;;;;;5110621;27;20044;-61
2022/09/26 12:51:46;;;;;;;4.85;4.13;;;;;;;;;;5106526;28;20071;-61
2022/09/26 12:54:14;;;;;;;5.78;4.70;;;;;;;;;;5108421;27;20041;-61
2022/09/26 12:56:50;;;;;;;8.43;4.03;;;;;;;;;;5109551;27;20067;-62
2022/09/26 12:59:34;;;;;;;4.20;3.80;;;;;;;;;;5110201;27;20552;-62
2022/09/26 13:02:02;;;;;;;9.40;4.75;;;;;;;;;;5093839;27;20043;-62
2022/09/26 13:04:42;;;;;;;5.60;3.70;;;;;;;;;;5091632;28;20051;-60
2022/09/26 13:07:23;;;;;;;4.32;3.35;;;;;;;;;;5115590;27;20561;-61
2022/09/26 13:09:59;;;;;;;7.55;3.90;;;;;;;;;;5110763;27;20059;-62
2022/09/26 13:12:33;;;;;;;4.20;3.45;;;;;;;;;;5109685;27;20492;-62
2022/09/26 13:15:08;;;;;;;5.75;4.13;;;;;;;;;;5095716;28;20049;-60
2022/09/26 13:17:40;;;;;;;4.30;3.50;;;;;;;;;;5115339;27;20753;-61
2022/09/26 13:20:27;;;;;;;5.82;3.20;;;;;;;;;;5099280;28;20043;-60
2022/09/26 13:22:56;;;;;;;5.38;2.90;;;;;;;;;;5120030;27;20083;-61
2022/09/26 13:25:44;;;;;;;4.55;2.83;;;;;;;;;;5112641;27;20042;-63
2022/09/26 13:28:13;;;;;;;4.40;2.90;;;;;;;;;;5108911;27;20488;-64
2022/09/26 13:30:41;;;;;;;3.90;3.45;;;;;;;;;;5114177;27;20047;-64
2022/09/26 13:33:07;;;;;;;5.80;3.38;;;;;;;;;;5110033;27;20036;-64
2022/09/26 13:35:34;;;;;;;4.43;3.38;;;;;;;;;;5112955;27;20059;-62
2022/09/26 13:38:19;;;;;;;4.93;3.38;;;;;;;;;;5108394;28;20343;-66
2022/09/26 13:40:45;;;;;;;3.15;2.83;;;;;;;;;;5101270;28;20127;-68
2022/09/26 13:43:15;;;;;;;3.90;3.50;;;;;;;;;;5087235;28;20090;-64
2022/09/26 13:45:47;;;;;;;3.63;3.05;;;;;;;;;;5116552;27;20114;-66
2022/09/26 13:48:21;;;;;;;6.00;2.90;;;;;;;;;;5086149;28;20066;-67
2022/09/26 13:50:54;;;;;;;3.30;3.00;;;;;;;;;;5113396;27;20043;-67
2022/09/26 13:53:39;;;;;;;3.45;2.70;;;;;;;;;;5106535;27;20044;-67
2022/09/26 13:56:29;;;;;;;3.78;3.17;;;;;;;;;;5075469;28;20039;-66
2022/09/26 13:59:09;;;;;;;3.63;3.03;;;;;;;;;;5103007;27;20035;-70
2022/09/26 14:01:35;;;;;;;4.15;3.53;;;;;;;;;;5100661;28;20039;-66
2022/09/26 14:04:17;;;;;;;6.18;3.45;;;;;;;;;;5088324;28;20047;-68
2022/09/26 14:07:02;;;;;;;4.47;3.10;;;;;;;;;;5087141;27;20036;-67
2022/09/26 14:09:50;;;;;;;3.45;3.15;;;;;;;;;;5112584;27;20194;-66
2022/09/26 14:12:19;;;;;;;4.15;3.35;;;;;;;;;;5098960;28;20047;-66
2022/09/26 14:14:48;;;;;;;5.75;3.38;;;;;;;;;;5090656;28;20714;-66
2022/09/26 14:17:32;;;;;;;4.10;3.30;;;;;;;;;;5089588;28;20062;-66
2022/09/26 14:20:02;;;;;;;6.30;3.63;;;;;;;;;;5090328;28;20117;-66
2022/09/26 14:22:33;;;;;;;6.03;3.42;;;;;;;;;;5072416;28;20044;-66
2022/09/26 14:25:01;;;;;;;4.22;2.95;;;;;;;;;;5089546;28;20040;-66
2022/09/26 14:27:28;;;;;;;3.08;2.78;;;;;;;;;;5090212;28;20051;-67
2022/09/26 14:29:59;;;;;;;6.28;3.53;;;;;;;;;;5072323;28;20509;-66
2022/09/26 14:32:29;;;;;;;4.00;3.60;;;;;;;;;;5090437;28;20119;-66
2022/09/26 14:35:03;;;;;;;4.20;3.80;;;;;;;;;;5090785;28;20519;-66
2022/09/26 14:37:29;;;;;;;4.10;3.60;;;;;;;;;;5089187;28;20048;-66
2022/09/26 14:40:01;;;;;;;5.80;3.47;;;;;;;;;;5090142;28;20044;-66
2022/09/26 14:42:30;;;;;;;4.03;3.50;;;;;;;;;;5090497;28;20043;-66
2022/09/26 14:44:58;;;;;;;6.20;3.78;;;;;;;;;;5090236;28;20040;-66
2022/09/26 14:47:25;;;;;;;5.30;3.85;;;;;;;;;;5089802;28;20040;-66
2022/09/26 14:49:58;;;;;;;4.63;3.78;;;;;;;;;;5090182;28;20175;-66
2022/09/26 14:52:24;;;;;;;6.50;4.40;;;;;;;;;;5090365;28;20059;-66
2022/09/26 14:54:54;;;;;;;5.63;4.10;;;;;;;;;;5090052;28;20089;-66
2022/09/26 14:57:31;;;;;;;4.78;4.25;;;;;;;;;;5088909;28;20104;-66
2022/09/26 14:59:58;;;;;;;5.22;4.22;;;;;;;;;;5090454;28;20629;-66
2022/09/26 15:02:25;;;;;;;7.18;4.40;;;;;;;;;;5089452;28;20044;-66
2022/09/26 15:05:11;;;;;;;6.10;4.85;;;;;;;;;;5090275;28;20043;-66
2022/09/26 15:07:43;;;;;;;5.75;4.70;;;;;;;;;;5074535;28;20046;-66
2022/09/26 15:10:13;;;;;;;5.35;4.47;;;;;;;;;;5107265;28;20052;-66
2022/09/26 15:12:44;;;;;;;8.38;5.10;;;;;;;;;;5114802;28;20079;-66
2022/09/26 15:15:13;;;;;;;6.20;5.38;;;;;;;;;;5114708;28;20046;-66